createdAt,value
2022-07-29T00:02:27.664Z,22.89
2022-07-29T00:04:54.461Z,23.15
2022-07-29T00:07:21.423Z,23.07
2022-07-29T00:09:51.733Z,22.91
2022-07-29T00:12:21.364Z,23.36
2022-07-29T00:14:52.789Z,23.29
2022-07-29T00:17:21.968Z,23.45
2022-07-29T00:19:49.578Z,23.39
2022-07-29T00:22:16.430Z,23.30
2022-07-29T00:24:42.913Z,23.62
2022-07-29T00:27:09.439Z,23.56
2022-07-29T00:29:38.287Z,23.63
2022-07-29T00:32:05.270Z,23.57
2022-07-29T00:34:32.122Z,23.57
2022-07-29T00:36:58.742Z,23.87
2022-07-29T00:39:27.513Z,24.04
2022-07-29T00:41:54.941Z,24.01
2022-07-29T00:44:21.678Z,24.24
2022-07-29T00:46:48.657Z,24.07
2022-07-29T00:49:16.433Z,24.29
2022-07-29T00:51:43.096Z,24.08
2022-07-29T00:54:10.804Z,24.22
2022-07-29T00:56:37.608Z,24.46
2022-07-29T00:59:04.240Z,24.46
2022-07-29T01:01:30.876Z,24.39
2022-07-29T01:03:57.709Z,24.21
2022-07-29T01:06:24.442Z,24.38
2022-07-29T01:08:51.109Z,24.32
2022-07-29T01:11:18.946Z,24.76
2022-07-29T01:13:45.869Z,24.30
2022-07-29T01:16:12.811Z,24.52
2022-07-29T01:18:39.394Z,24.34
2022-07-29T01:21:08.604Z,24.52
2022-07-29T01:23:35.212Z,24.46
2022-07-29T01:26:01.806Z,24.47
2022-07-29T01:28:30.241Z,24.54
2022-07-29T01:30:58.166Z,24.21
2022-07-29T01:33:24.731Z,24.08
2022-07-29T01:35:52.370Z,24.25
2022-07-29T01:38:18.905Z,24.06
2022-07-29T01:40:46.334Z,24.08
2022-07-29T01:43:13.186Z,24.13
2022-07-29T01:45:41.235Z,24.08
2022-07-29T01:48:08.702Z,23.99
2022-07-29T01:50:35.295Z,24.19
2022-07-29T01:53:02.141Z,24.26
2022-07-29T01:55:29.094Z,24.54
2022-07-29T01:57:55.850Z,24.70
2022-07-29T02:00:24.162Z,24.54
2022-07-29T02:02:50.784Z,24.68
2022-07-29T02:05:17.763Z,24.45
2022-07-29T02:07:44.393Z,24.58
2022-07-29T02:10:11.737Z,24.89
2022-07-29T02:12:38.811Z,24.94
2022-07-29T02:15:05.515Z,24.97
2022-07-29T02:17:32.327Z,25.24
2022-07-29T02:19:58.996Z,24.86
2022-07-29T02:22:25.858Z,24.95
2022-07-29T02:24:52.629Z,24.99
2022-07-29T02:27:19.502Z,25.40
2022-07-29T02:29:45.997Z,25.00
2022-07-29T02:32:12.641Z,25.10
2022-07-29T02:34:40.287Z,24.99
2022-07-29T02:37:07.867Z,24.83
2022-07-29T02:39:34.455Z,25.17
2022-07-29T02:42:01.185Z,25.12
2022-07-29T02:44:32.734Z,25.34
2022-07-29T02:47:03.452Z,25.31
2022-07-29T02:49:30.862Z,25.25
2022-07-29T02:51:57.423Z,24.92
2022-07-29T02:54:24.121Z,25.00
2022-07-29T02:56:53.943Z,24.85
2022-07-29T02:59:20.738Z,25.08
2022-07-29T03:01:47.741Z,24.83
2022-07-29T03:04:17.289Z,25.16
2022-07-29T03:06:45.220Z,25.25
2022-07-29T03:09:13.781Z,25.40
2022-07-29T03:11:42.492Z,25.66
2022-07-29T03:14:17.092Z,25.38
2022-07-29T03:16:45.119Z,25.25
2022-07-29T03:19:11.749Z,25.72
2022-07-29T03:21:38.391Z,25.94
2022-07-29T03:24:10.678Z,26.14
2022-07-29T03:26:37.752Z,25.95
2022-07-29T03:29:04.405Z,26.14
2022-07-29T03:31:31.236Z,26.47
2022-07-29T03:33:58.720Z,26.48
2022-07-29T03:36:25.466Z,26.70
2022-07-29T03:38:52.223Z,26.68
2022-07-29T03:41:22.510Z,27.23
2022-07-29T03:43:50.029Z,26.87
2022-07-29T03:46:16.730Z,27.12
2022-07-29T03:48:43.774Z,27.81
2022-07-29T03:51:11.670Z,27.76
2022-07-29T03:53:39.192Z,27.69
2022-07-29T03:56:06.093Z,27.90
2022-07-29T03:58:32.654Z,28.28
2022-07-29T04:00:59.192Z,28.35
2022-07-29T04:03:28.054Z,28.12
2022-07-29T04:05:54.942Z,28.92
2022-07-29T04:08:22.067Z,29.17
2022-07-29T04:10:48.718Z,28.84
2022-07-29T04:13:35.267Z,29.17
2022-07-29T04:16:02.329Z,29.24
2022-07-29T04:18:29.071Z,29.32
2022-07-29T04:20:55.975Z,29.11
2022-07-29T04:23:22.859Z,29.01
2022-07-29T04:25:49.609Z,29.36
2022-07-29T04:28:17.080Z,29.63
2022-07-29T04:30:44.139Z,29.85
2022-07-29T04:33:11.125Z,29.43
2022-07-29T04:35:38.929Z,29.98
2022-07-29T04:38:17.351Z,29.59
2022-07-29T04:40:43.999Z,29.87
2022-07-29T04:43:12.552Z,30.33
2022-07-29T04:45:41.346Z,30.13
2022-07-29T04:48:10.356Z,30.17
2022-07-29T04:50:37.925Z,30.13
2022-07-29T04:53:04.584Z,30.78
2022-07-29T04:55:31.334Z,30.65
2022-07-29T04:57:58.048Z,31.37
2022-07-29T05:00:33.058Z,31.46
2022-07-29T05:03:00.453Z,32.06
2022-07-29T05:05:27.104Z,32.21
2022-07-29T05:07:53.875Z,32.18
2022-07-29T05:10:20.481Z,31.97
2022-07-29T05:12:47.020Z,32.09
2022-07-29T05:15:13.929Z,32.50
2022-07-29T05:17:40.533Z,32.27
2022-07-29T05:20:07.364Z,32.37
2022-07-29T05:22:33.934Z,31.89
2022-07-29T05:25:04.299Z,31.83
2022-07-29T05:27:33.790Z,32.28
2022-07-29T05:30:00.401Z,32.14
2022-07-29T05:32:26.965Z,32.33
2022-07-29T05:34:54.512Z,32.60
2022-07-29T05:37:22.955Z,32.71
2022-07-29T05:39:56.176Z,33.29
2022-07-29T05:42:23.617Z,32.46
2022-07-29T05:44:53.317Z,32.75
2022-07-29T05:47:20.880Z,32.32
2022-07-29T05:49:48.450Z,32.38
2022-07-29T05:52:15.083Z,32.48
2022-07-29T05:54:41.794Z,32.25
2022-07-29T05:57:08.489Z,32.15
2022-07-29T05:59:36.462Z,32.31
2022-07-29T06:02:03.131Z,32.10
2022-07-29T06:04:29.883Z,31.84
2022-07-29T06:06:56.584Z,32.17
2022-07-29T06:09:23.918Z,32.90
2022-07-29T06:11:50.506Z,33.29
2022-07-29T06:14:19.815Z,33.95
2022-07-29T06:16:47.804Z,34.74
2022-07-29T06:19:14.565Z,35.50
2022-07-29T06:21:41.957Z,34.57
2022-07-29T06:24:09.212Z,34.99
2022-07-29T06:26:39.710Z,35.74
2022-07-29T06:29:26.186Z,36.21
2022-07-29T06:31:53.952Z,36.61
2022-07-29T06:34:20.842Z,37.04
2022-07-29T06:36:47.708Z,37.30
2022-07-29T06:39:15.474Z,37.58
2022-07-29T06:41:43.493Z,37.14
2022-07-29T06:44:13.641Z,37.57
2022-07-29T06:46:40.422Z,36.83
2022-07-29T06:49:09.050Z,37.28
2022-07-29T06:51:35.738Z,37.16
2022-07-29T06:54:13.475Z,37.31
2022-07-29T06:56:40.610Z,36.93
2022-07-29T06:59:09.683Z,37.49
2022-07-29T07:01:37.437Z,37.77
2022-07-29T07:04:04.134Z,37.22
2022-07-29T07:06:30.955Z,36.96
2022-07-29T07:08:57.571Z,36.44
2022-07-29T07:11:24.139Z,36.46
2022-07-29T07:16:20.548Z,35.54
2022-07-29T07:18:47.404Z,35.27
2022-07-29T07:21:19.295Z,35.06
2022-07-29T07:23:46.258Z,35.13
2022-07-29T07:26:15.430Z,35.08
2022-07-29T07:28:42.409Z,35.29
2022-07-29T07:31:11.605Z,35.03
2022-07-29T07:33:38.298Z,34.73
2022-07-29T07:36:05.447Z,34.35
2022-07-29T07:38:32.361Z,34.20
2022-07-29T07:40:58.993Z,34.56
2022-07-29T07:43:25.586Z,34.42
2022-07-29T07:45:52.815Z,33.73
2022-07-29T07:48:42.079Z,33.49
2022-07-29T07:51:11.740Z,33.11
2022-07-29T07:53:38.547Z,33.19
2022-07-29T07:56:11.019Z,33.07
2022-07-29T07:58:38.744Z,33.12
2022-07-29T08:01:05.617Z,33.03
2022-07-29T08:03:32.212Z,33.20
2022-07-29T08:06:00.421Z,33.75
2022-07-29T08:08:27.151Z,33.21
2022-07-29T08:10:53.744Z,33.53
2022-07-29T08:13:20.433Z,34.13
2022-07-29T08:15:47.400Z,34.11
2022-07-29T08:18:14.349Z,33.39
2022-07-29T08:20:41.322Z,33.54
2022-07-29T08:23:08.122Z,33.73
2022-07-29T08:25:34.770Z,33.67
2022-07-29T08:28:05.551Z,33.46
2022-07-29T08:30:32.159Z,33.50
2022-07-29T08:32:59.306Z,33.41
2022-07-29T08:35:26.224Z,33.46
2022-07-29T08:37:56.824Z,33.25
2022-07-29T08:40:31.976Z,33.28
2022-07-29T08:42:59.689Z,33.45
2022-07-29T08:45:27.894Z,34.58
2022-07-29T08:47:54.824Z,34.39
2022-07-29T08:50:21.454Z,33.81
2022-07-29T08:52:47.996Z,34.00
2022-07-29T08:55:14.802Z,33.96
2022-07-29T08:57:51.092Z,33.91
2022-07-29T09:00:21.116Z,34.90
2022-07-29T09:02:48.113Z,35.23
2022-07-29T09:05:14.950Z,34.85
2022-07-29T09:07:45.219Z,35.25
2022-07-29T09:10:12.015Z,35.12
2022-07-29T09:12:38.807Z,35.04
2022-07-29T09:15:05.438Z,35.07
2022-07-29T09:17:32.660Z,34.92
2022-07-29T09:19:59.291Z,34.78
2022-07-29T09:22:31.355Z,34.74
2022-07-29T09:24:58.353Z,34.86
2022-07-29T09:27:25.233Z,34.98
2022-07-29T09:29:52.852Z,34.83
2022-07-29T09:32:19.959Z,34.94
2022-07-29T09:34:46.570Z,34.91
2022-07-29T09:37:13.180Z,34.79
2022-07-29T09:39:39.750Z,34.76
2022-07-29T09:42:07.403Z,34.73
2022-07-29T09:44:33.989Z,34.76
2022-07-29T09:47:02.298Z,34.79
2022-07-29T09:49:29.035Z,34.77
2022-07-29T09:51:55.846Z,34.78
2022-07-29T09:54:22.653Z,34.68
2022-07-29T09:56:49.294Z,34.41
2022-07-29T09:59:16.217Z,34.28
2022-07-29T10:01:42.943Z,34.26
2022-07-29T10:04:09.923Z,34.09
2022-07-29T10:06:36.583Z,33.96
2022-07-29T10:09:03.279Z,34.18
2022-07-29T10:11:48.364Z,33.73
2022-07-29T10:14:16.819Z,33.78
2022-07-29T10:16:45.620Z,33.70
2022-07-29T10:19:12.432Z,33.29
2022-07-29T10:21:39.732Z,33.44
2022-07-29T10:24:06.455Z,33.37
2022-07-29T10:26:34.778Z,33.62
2022-07-29T10:29:01.722Z,33.26
2022-07-29T10:31:28.598Z,33.48
2022-07-29T10:33:55.198Z,33.32
2022-07-29T10:36:21.973Z,33.41
2022-07-29T10:38:50.187Z,33.16
2022-07-29T10:44:03.752Z,33.18
2022-07-29T10:46:30.534Z,33.23
2022-07-29T10:48:57.760Z,33.35
2022-07-29T10:51:24.795Z,33.18
2022-07-29T10:53:52.339Z,33.66
2022-07-29T10:56:20.179Z,34.09
2022-07-29T10:58:52.958Z,34.42
2022-07-29T11:01:22.739Z,34.38
2022-07-29T11:04:04.699Z,34.66
2022-07-29T11:06:31.349Z,34.61
2022-07-29T11:08:58.390Z,34.76
2022-07-29T11:11:29.597Z,34.69
2022-07-29T11:13:58.531Z,35.16
2022-07-29T11:16:27.515Z,35.41
2022-07-29T11:18:54.153Z,35.57
2022-07-29T11:21:23.350Z,35.94
2022-07-29T11:23:52.047Z,37.20
2022-07-29T11:26:19.091Z,37.48
2022-07-29T11:28:45.795Z,37.58
2022-07-29T11:31:12.451Z,37.85
2022-07-29T11:36:28.315Z,38.16
2022-07-29T11:38:55.449Z,38.15
2022-07-29T11:41:22.738Z,39.15
2022-07-29T11:43:50.610Z,40.00
2022-07-29T11:46:25.026Z,39.61
2022-07-29T11:48:52.261Z,39.53
2022-07-29T11:51:19.618Z,40.11
2022-07-29T11:56:45.386Z,40.23
2022-07-29T11:59:15.259Z,39.41
2022-07-29T12:01:42.271Z,38.85
2022-07-29T12:04:11.343Z,40.34
2022-07-29T12:06:40.690Z,39.63
2022-07-29T12:09:15.159Z,40.53
2022-07-29T12:11:53.957Z,40.87
2022-07-29T12:14:20.533Z,42.06
2022-07-29T12:16:47.274Z,42.27
2022-07-29T12:19:13.893Z,41.78
2022-07-29T12:21:40.456Z,42.16
2022-07-29T12:24:19.355Z,42.59
2022-07-29T12:26:49.558Z,41.24
2022-07-29T12:29:19.993Z,41.25
2022-07-29T12:31:48.215Z,41.08
2022-07-29T12:34:14.993Z,41.01
2022-07-29T12:36:43.395Z,40.65
2022-07-29T12:39:09.970Z,40.21
2022-07-29T12:41:39.451Z,40.68
2022-07-29T12:44:06.034Z,40.09
2022-07-29T12:46:35.897Z,40.79
2022-07-29T12:49:04.840Z,40.85
2022-07-29T12:51:31.567Z,40.94
2022-07-29T12:53:59.027Z,40.85
2022-07-29T12:56:42.135Z,40.98
2022-07-29T12:59:09.869Z,40.76
2022-07-29T13:01:36.463Z,40.32
2022-07-29T13:04:03.706Z,40.55
2022-07-29T13:06:30.349Z,40.37
2022-07-29T13:08:57.149Z,40.92
2022-07-29T13:11:23.675Z,41.56
2022-07-29T13:14:06.753Z,41.28
2022-07-29T13:16:34.478Z,41.61
2022-07-29T13:19:04.886Z,41.55
2022-07-29T13:21:31.632Z,42.00
2022-07-29T13:23:58.195Z,41.80
2022-07-29T13:26:26.054Z,41.25
2022-07-29T13:28:52.567Z,41.05
2022-07-29T13:31:19.039Z,40.64
2022-07-29T13:33:46.768Z,39.42
2022-07-29T13:36:13.325Z,39.68
2022-07-29T13:38:40.006Z,39.77
2022-07-29T13:41:11.788Z,40.02
2022-07-29T13:43:38.444Z,40.24
2022-07-29T13:46:05.466Z,40.00
2022-07-29T13:48:33.279Z,40.19
2022-07-29T13:51:00.018Z,39.31
2022-07-29T13:53:28.320Z,39.69
2022-07-29T13:55:55.051Z,39.93
2022-07-29T13:58:21.645Z,40.38
2022-07-29T14:00:48.282Z,40.73
2022-07-29T14:03:14.997Z,40.13
2022-07-29T14:05:41.818Z,39.47
2022-07-29T14:08:08.703Z,39.80
2022-07-29T14:10:35.521Z,40.08
2022-07-29T14:13:02.295Z,39.81
2022-07-29T14:15:30.270Z,39.31
2022-07-29T14:17:57.164Z,38.30
2022-07-29T14:20:23.955Z,36.98
2022-07-29T14:22:50.538Z,37.07
2022-07-29T14:25:17.086Z,36.27
2022-07-29T14:27:44.118Z,35.88
2022-07-29T14:30:10.741Z,36.10
2022-07-29T14:32:37.463Z,35.36
2022-07-29T14:35:04.318Z,36.17
2022-07-29T14:37:40.181Z,36.23
2022-07-29T14:40:14.866Z,37.52
2022-07-29T14:42:41.520Z,37.91
2022-07-29T14:45:08.432Z,37.84
2022-07-29T14:47:35.110Z,37.48
2022-07-29T14:50:01.620Z,37.38
2022-07-29T14:52:28.222Z,37.97
2022-07-29T14:54:54.826Z,38.39
2022-07-29T14:57:23.197Z,38.31
2022-07-29T14:59:49.820Z,38.41
2022-07-29T15:02:16.651Z,38.46
2022-07-29T15:04:43.445Z,38.75
2022-07-29T15:07:10.830Z,39.14
2022-07-29T15:09:40.282Z,38.30
2022-07-29T15:12:16.343Z,38.11
2022-07-29T15:14:43.366Z,38.21
2022-07-29T15:17:10.060Z,38.14
2022-07-29T15:19:37.104Z,37.78
2022-07-29T15:22:06.402Z,37.35
2022-07-29T15:24:33.527Z,37.39
2022-07-29T15:27:00.942Z,37.72
2022-07-29T15:29:28.017Z,37.54
2022-07-29T15:31:55.685Z,37.78
2022-07-29T15:34:22.931Z,37.93
2022-07-29T15:36:52.629Z,37.80
2022-07-29T15:39:23.132Z,37.79
2022-07-29T15:41:49.838Z,37.97
2022-07-29T15:44:16.781Z,38.30
2022-07-29T15:46:50.920Z,38.75
2022-07-29T15:49:19.378Z,38.74
2022-07-29T15:51:49.681Z,39.10
2022-07-29T15:54:17.119Z,39.18
2022-07-29T15:56:43.682Z,39.56
2022-07-29T15:59:22.055Z,39.57
2022-07-29T16:01:49.595Z,39.69
2022-07-29T16:04:16.479Z,39.67
2022-07-29T16:06:43.130Z,39.47
2022-07-29T16:09:09.902Z,40.04
2022-07-29T16:14:42.754Z,40.12
2022-07-29T16:17:14.192Z,39.77
2022-07-29T16:19:43.530Z,40.03
2022-07-29T16:22:10.693Z,40.00
2022-07-29T16:24:37.746Z,40.04
2022-07-29T16:27:04.557Z,40.18
2022-07-29T16:29:31.125Z,40.21
2022-07-29T16:31:58.629Z,40.09
2022-07-29T16:34:26.102Z,39.68
2022-07-29T16:36:52.663Z,40.28
2022-07-29T16:39:21.834Z,40.71
2022-07-29T16:41:49.915Z,40.00
2022-07-29T16:44:16.759Z,39.96
2022-07-29T16:46:44.774Z,40.85
2022-07-29T16:49:11.699Z,40.44
2022-07-29T16:51:41.693Z,40.40
2022-07-29T16:54:09.324Z,40.64
2022-07-29T16:56:36.926Z,40.61
2022-07-29T16:59:06.021Z,40.56
2022-07-29T17:01:32.853Z,40.35
2022-07-29T17:04:04.454Z,39.98
2022-07-29T17:06:32.062Z,39.81
2022-07-29T17:08:58.846Z,39.93
2022-07-29T17:11:52.941Z,39.88
2022-07-29T17:14:15.243Z,40.29
2022-07-29T17:16:42.037Z,39.59
2022-07-29T17:19:18.202Z,38.93
2022-07-29T17:21:49.167Z,38.91
2022-07-29T17:24:15.883Z,38.78
2022-07-29T17:26:44.129Z,38.65
2022-07-29T17:29:10.890Z,38.42
2022-07-29T17:31:37.899Z,38.07
2022-07-29T17:34:04.426Z,38.75
2022-07-29T17:36:31.300Z,38.14
2022-07-29T17:38:58.019Z,36.76
2022-07-29T17:41:25.027Z,36.05
2022-07-29T17:43:51.887Z,35.77
2022-07-29T17:46:18.540Z,34.43
2022-07-29T17:48:45.250Z,34.87
2022-07-29T17:51:12.698Z,36.72
2022-07-29T17:53:40.125Z,37.51
2022-07-29T17:56:06.789Z,38.28
2022-07-29T17:58:33.394Z,37.89
2022-07-29T18:01:00.320Z,38.32
2022-07-29T18:03:27.284Z,38.33
2022-07-29T18:06:01.119Z,38.97
2022-07-29T18:08:27.714Z,39.14
2022-07-29T18:10:54.580Z,39.39
2022-07-29T18:13:21.202Z,39.63
2022-07-29T18:15:47.795Z,39.79
2022-07-29T18:18:14.429Z,39.87
2022-07-29T18:20:41.179Z,39.87
2022-07-29T18:23:10.905Z,39.99
2022-07-29T18:25:39.044Z,40.27
2022-07-29T18:28:05.950Z,40.68
2022-07-29T18:30:32.818Z,40.72
2022-07-29T18:33:20.321Z,40.55
2022-07-29T18:35:46.767Z,40.71
2022-07-29T18:38:17.331Z,41.14
2022-07-29T18:40:46.328Z,41.17
2022-07-29T18:43:12.939Z,41.08
2022-07-29T18:45:39.890Z,41.41
2022-07-29T18:48:07.505Z,41.39
2022-07-29T18:50:46.873Z,41.75
2022-07-29T18:53:13.792Z,42.29
2022-07-29T18:55:43.092Z,42.06
2022-07-29T18:58:09.999Z,42.10
2022-07-29T19:00:36.896Z,42.35
2022-07-29T19:03:03.500Z,42.26
2022-07-29T19:05:30.765Z,42.29
2022-07-29T19:07:57.303Z,42.31
2022-07-29T19:10:25.168Z,42.86
2022-07-29T19:12:52.039Z,42.73
2022-07-29T19:15:21.123Z,42.90
2022-07-29T19:17:47.673Z,43.12
2022-07-29T19:20:16.797Z,42.95
2022-07-29T19:22:43.746Z,43.29
2022-07-29T19:25:10.331Z,43.22
2022-07-29T19:27:41.983Z,43.40
2022-07-29T19:30:12.205Z,43.90
2022-07-29T19:32:40.891Z,43.69
2022-07-29T19:35:07.764Z,43.60
2022-07-29T19:37:34.380Z,44.09
2022-07-29T19:40:00.946Z,44.01
2022-07-29T19:42:28.062Z,44.16
2022-07-29T19:44:55.012Z,43.97
2022-07-29T19:47:22.596Z,44.46
2022-07-29T19:49:50.050Z,45.45
2022-07-29T19:54:57.089Z,44.59
2022-07-29T19:57:24.228Z,44.75
2022-07-29T19:59:51.225Z,44.67
2022-07-29T20:02:18.341Z,45.37
2022-07-29T20:04:45.139Z,44.98
2022-07-29T20:07:11.780Z,44.95
2022-07-29T20:09:38.399Z,45.45
2022-07-29T20:12:06.678Z,45.58
2022-07-29T20:14:35.558Z,45.51
2022-07-29T20:17:02.432Z,45.29
2022-07-29T20:19:30.029Z,45.58
2022-07-29T20:21:56.976Z,45.52
2022-07-29T20:24:23.522Z,45.46
2022-07-29T20:26:50.242Z,45.70
2022-07-29T20:29:16.797Z,45.74
2022-07-29T20:31:43.388Z,45.58
2022-07-29T20:34:10.322Z,45.42
2022-07-29T20:36:36.929Z,45.46
2022-07-29T20:39:03.373Z,45.18
2022-07-29T20:41:30.301Z,45.20
2022-07-29T20:43:56.866Z,45.01
2022-07-29T20:46:23.762Z,45.28
2022-07-29T20:48:50.369Z,45.17
2022-07-29T20:51:20.294Z,45.18
2022-07-29T20:53:46.832Z,44.91
2022-07-29T20:56:13.406Z,45.02
2022-07-29T20:58:40.017Z,45.15
2022-07-29T21:01:06.719Z,45.11
2022-07-29T21:03:33.382Z,44.92
2022-07-29T21:06:01.013Z,44.72
2022-07-29T21:08:28.587Z,44.83
2022-07-29T21:10:55.240Z,44.89
2022-07-29T21:13:21.846Z,44.86
2022-07-29T21:15:50.432Z,44.73
2022-07-29T21:18:16.966Z,44.88
2022-07-29T21:20:43.615Z,44.44
2022-07-29T21:23:10.654Z,44.74
2022-07-29T21:25:38.678Z,44.57
2022-07-29T21:28:05.511Z,44.75
2022-07-29T21:30:32.395Z,44.86
2022-07-29T21:32:59.104Z,44.76
2022-07-29T21:36:07.331Z,44.69
2022-07-29T21:38:20.062Z,45.04
2022-07-29T21:40:46.655Z,45.01
2022-07-29T21:43:13.205Z,44.52
2022-07-29T21:45:39.935Z,44.58
2022-07-29T21:48:06.825Z,44.16
2022-07-29T21:50:33.636Z,44.51
2022-07-29T21:53:00.678Z,44.37
2022-07-29T21:55:29.720Z,44.15
2022-07-29T21:58:02.747Z,44.04
2022-07-29T22:00:30.997Z,44.55
2022-07-29T22:02:57.891Z,44.38
2022-07-29T22:05:24.802Z,44.03
2022-07-29T22:07:56.148Z,44.27
2022-07-29T22:10:23.727Z,43.58
2022-07-29T22:12:50.311Z,43.39
2022-07-29T22:15:17.454Z,43.02
2022-07-29T22:17:45.037Z,43.06
2022-07-29T22:20:12.365Z,42.65
2022-07-29T22:22:39.940Z,42.67
2022-07-29T22:25:06.959Z,42.64
2022-07-29T22:27:36.301Z,42.30
2022-07-29T22:30:03.044Z,42.71
2022-07-29T22:32:30.455Z,43.61
2022-07-29T22:34:57.388Z,43.67
2022-07-29T22:37:26.602Z,44.20
2022-07-29T22:39:53.937Z,44.35
2022-07-29T22:42:20.546Z,44.73
2022-07-29T22:44:47.126Z,44.92
2022-07-29T22:47:13.746Z,45.04
2022-07-29T22:49:40.373Z,45.20
2022-07-29T22:52:07.263Z,45.02
2022-07-29T22:54:34.337Z,44.99
2022-07-29T22:57:02.124Z,44.83
2022-07-29T22:59:29.500Z,44.89
2022-07-29T23:01:56.237Z,44.70
2022-07-29T23:04:22.995Z,44.91
2022-07-29T23:06:49.578Z,44.65
2022-07-29T23:09:17.565Z,44.86
2022-07-29T23:11:44.218Z,44.86
2022-07-29T23:14:10.831Z,44.64
2022-07-29T23:16:37.443Z,44.33
2022-07-29T23:19:04.058Z,44.31
2022-07-29T23:21:31.609Z,44.78
2022-07-29T23:23:58.437Z,44.30
2022-07-29T23:26:25.057Z,44.29
2022-07-29T23:28:51.869Z,44.23
2022-07-29T23:31:18.826Z,43.82
2022-07-29T23:33:45.486Z,43.59
2022-07-29T23:36:12.275Z,43.43
2022-07-29T23:38:38.774Z,43.41
2022-07-29T23:41:06.322Z,43.04
2022-07-29T23:43:33.224Z,43.34
2022-07-29T23:46:00.637Z,43.31
2022-07-29T23:48:28.145Z,43.33
2022-07-29T23:50:54.855Z,43.10
2022-07-29T23:53:21.915Z,43.26
2022-07-29T23:55:49.494Z,43.58
2022-07-29T23:58:16.121Z,44.22
